Bataysk — UBXE3 — position and weather

sailwx.info

Track history (hours):
 
Tides and Currents Weather Stations Pressure Air Temp Water Temp Dewpoint Dewpoint Depression Visibility Wind Speed Wind Dir Waves Ship Positions

Bataysk

Last reported at 2017-Mar-24 05:03 UTC. Time now 2017-Mar-25 23:42 UTC.
Position N 45°31' E 036°49'.

Length 130 m; draft 2.7 m.

Type: Cargo ship. MMSI: 273347320.

Date/timePositionNaut miles runAvg speedWind from/ knotsBaromVisibWave heightAir tempDewpointWater temp
2017-Mar-24 05:03N 45°31' E 036°49'4 7.6
2017-Mar-24 04:33N 45°28' E 036°46'8 7.6
2017-Mar-24 03:33N 45°22' E 036°40'7 7.2
2017-Mar-24 02:33N 45°19' E 036°31'5 5.0
2017-Mar-24 01:33N 45°14' E 036°29'6 5.7
2017-Mar-24 00:33N 45°08' E 036°30'5 0.1
2017-Mar-22 10:33N 45°03' E 036°29'7 7.0
2017-Mar-22 09:33N 45°10' E 036°28'7 6.9
2017-Mar-22 08:33N 45°17' E 036°29'6 6.2
2017-Mar-22 07:33N 45°20' E 036°36'6 6.1
2017-Mar-22 06:33N 45°25' E 036°40'4 3.9
2017-Mar-22 05:31N 45°29' E 036°37'0 0.0
2017-Mar-22 04:31N 45°29' E 036°37'0 0.0
2017-Mar-22 03:28N 45°29' E 036°37'0 0.0
2017-Mar-22 02:31N 45°29' E 036°37'0 0.0
2017-Mar-22 01:31N 45°29' E 036°37'0 0.0
2017-Mar-22 00:31N 45°29' E 036°37'0 0.1
2017-Mar-21 23:31N 45°29' E 036°37'0 0.0
2017-Mar-21 22:31N 45°29' E 036°37'0 0.1
2017-Mar-21 21:31N 45°29' E 036°37'0 0.0
2017-Mar-21 20:31N 45°29' E 036°37'0 0.0
2017-Mar-21 19:31N 45°29' E 036°37'0 0.0
2017-Mar-21 18:31N 45°29' E 036°37'0 0.0
2017-Mar-21 17:31N 45°29' E 036°37'0 0.0
2017-Mar-21 16:31N 45°29' E 036°37'0 0.1
2017-Mar-21 15:31N 45°29' E 036°37'0 0.0
2017-Mar-21 14:31N 45°29' E 036°37'0 0.0
2017-Mar-21 13:31N 45°29' E 036°37'0 0.0
2017-Mar-21 12:31N 45°29' E 036°37'0 0.0
2017-Mar-21 11:31N 45°29' E 036°37'0 0.0
2017-Mar-21 10:31N 45°29' E 036°37'0 0.0
2017-Mar-21 09:31N 45°29' E 036°37'0 0.0
2017-Mar-21 08:31N 45°29' E 036°37'0 0.0
2017-Mar-21 07:25N 45°29' E 036°37'0 0.0
2017-Mar-21 06:31N 45°29' E 036°37'0 0.0
2017-Mar-21 05:31N 45°29' E 036°37'0 0.0
2017-Mar-21 04:31N 45°29' E 036°37'0 0.0
2017-Mar-21 03:31N 45°29' E 036°37'0 0.0
2017-Mar-21 02:31N 45°29' E 036°37'4 4.5
2017-Mar-21 01:33N 45°30' E 036°43'  
Track history (hours):
 
Tides and Currents Weather Stations Pressure Air Temp Water Temp Dewpoint Dewpoint Depression Visibility Wind Speed Wind Dir Waves Ship Positions

Bataysk

Last reported at 2017-Mar-24 05:03 UTC. Time now 2017-Mar-25 23:42 UTC.
Position N 45°31' E 036°49'.

Length 130 m; draft 2.7 m.

Type: Cargo ship. MMSI: 273347320.

Date/timePositionNaut miles runAvg speedWind from/ knotsBaromVisibWave heightAir tempDewpointWater temp
2017-Mar-24 05:03N 45°31' E 036°49'4 7.6
2017-Mar-24 04:33N 45°28' E 036°46'8 7.6
2017-Mar-24 03:33N 45°22' E 036°40'7 7.2
2017-Mar-24 02:33N 45°19' E 036°31'5 5.0
2017-Mar-24 01:33N 45°14' E 036°29'6 5.7
2017-Mar-24 00:33N 45°08' E 036°30'5 0.1
2017-Mar-22 10:33N 45°03' E 036°29'7 7.0
2017-Mar-22 09:33N 45°10' E 036°28'7 6.9
2017-Mar-22 08:33N 45°17' E 036°29'6 6.2
2017-Mar-22 07:33N 45°20' E 036°36'6 6.1
2017-Mar-22 06:33N 45°25' E 036°40'4 3.9
2017-Mar-22 05:31N 45°29' E 036°37'0 0.0
2017-Mar-22 04:31N 45°29' E 036°37'0 0.0
2017-Mar-22 03:28N 45°29' E 036°37'0 0.0
2017-Mar-22 02:31N 45°29' E 036°37'0 0.0
2017-Mar-22 01:31N 45°29' E 036°37'0 0.0
2017-Mar-22 00:31N 45°29' E 036°37'0 0.1
2017-Mar-21 23:31N 45°29' E 036°37'0 0.0
2017-Mar-21 22:31N 45°29' E 036°37'0 0.1
2017-Mar-21 21:31N 45°29' E 036°37'0 0.0
2017-Mar-21 20:31N 45°29' E 036°37'0 0.0
2017-Mar-21 19:31N 45°29' E 036°37'0 0.0
2017-Mar-21 18:31N 45°29' E 036°37'0 0.0
2017-Mar-21 17:31N 45°29' E 036°37'0 0.0
2017-Mar-21 16:31N 45°29' E 036°37'0 0.1
2017-Mar-21 15:31N 45°29' E 036°37'0 0.0
2017-Mar-21 14:31N 45°29' E 036°37'0 0.0
2017-Mar-21 13:31N 45°29' E 036°37'0 0.0
2017-Mar-21 12:31N 45°29' E 036°37'0 0.0
2017-Mar-21 11:31N 45°29' E 036°37'0 0.0
2017-Mar-21 10:31N 45°29' E 036°37'0 0.0
2017-Mar-21 09:31N 45°29' E 036°37'0 0.0
2017-Mar-21 08:31N 45°29' E 036°37'0 0.0
2017-Mar-21 07:25N 45°29' E 036°37'0 0.0
2017-Mar-21 06:31N 45°29' E 036°37'0 0.0
2017-Mar-21 05:31N 45°29' E 036°37'0 0.0
2017-Mar-21 04:31N 45°29' E 036°37'0 0.0
2017-Mar-21 03:31N 45°29' E 036°37'0 0.0
2017-Mar-21 02:31N 45°29' E 036°37'4 4.5
2017-Mar-21 01:33N 45°30' E 036°43'  

Dump ship's entire track history